createdAt,value
2018-12-26T00:00:57.179Z,0.00
2018-12-26T00:01:57.166Z,0.00
2018-12-26T00:02:57.158Z,0.00
2018-12-26T00:03:57.145Z,0.00
2018-12-26T00:04:57.137Z,0.00
2018-12-26T00:05:57.121Z,0.00
2018-12-26T00:06:57.113Z,0.00
2018-12-26T00:07:57.099Z,0.00
2018-12-26T00:08:57.089Z,0.00
2018-12-26T00:09:57.077Z,0.00
2018-12-26T00:10:57.068Z,0.00
2018-12-26T00:11:57.053Z,0.00
2018-12-26T00:12:57.043Z,0.00
2018-12-26T00:13:57.029Z,0.00
2018-12-26T00:14:57.022Z,0.00
2018-12-26T00:15:57.007Z,0.00
2018-12-26T00:16:56.997Z,0.00
2018-12-26T00:17:56.983Z,0.00
2018-12-26T00:18:56.974Z,0.00
2018-12-26T00:19:57.063Z,0.00
2018-12-26T00:20:56.951Z,0.00
2018-12-26T00:21:56.941Z,0.00
2018-12-26T00:22:56.929Z,0.00
2018-12-26T00:23:56.954Z,0.00
2018-12-26T00:24:56.907Z,0.00
2018-12-26T00:26:01.596Z,0.00
2018-12-26T00:26:56.884Z,0.00
2018-12-26T00:27:56.872Z,0.00
2018-12-26T00:28:56.860Z,0.00
2018-12-26T00:29:56.847Z,0.00
2018-12-26T00:30:56.838Z,0.00
2018-12-26T00:31:56.825Z,0.00
2018-12-26T00:32:56.816Z,0.00
2018-12-26T00:33:56.803Z,0.00
2018-12-26T00:34:56.793Z,0.00
2018-12-26T00:35:56.781Z,0.00
2018-12-26T00:36:56.770Z,0.00
2018-12-26T00:37:56.756Z,0.00
2018-12-26T00:38:56.748Z,0.00
2018-12-26T00:39:56.734Z,0.00
2018-12-26T00:40:56.725Z,0.00
2018-12-26T00:41:56.714Z,0.00
2018-12-26T00:42:56.701Z,0.00
2018-12-26T00:43:56.688Z,0.00
2018-12-26T00:44:56.678Z,0.00
2018-12-26T00:45:56.667Z,0.00
2018-12-26T00:46:56.656Z,0.00
2018-12-26T00:47:56.643Z,0.00
2018-12-26T00:48:56.632Z,0.00
2018-12-26T00:49:56.620Z,0.00
2018-12-26T00:50:56.610Z,0.00
2018-12-26T00:51:56.598Z,0.00
2018-12-26T00:52:56.586Z,0.00
2018-12-26T00:53:56.573Z,0.00
2018-12-26T00:54:56.565Z,0.00
2018-12-26T00:55:56.558Z,0.00
2018-12-26T00:56:56.541Z,0.00
2018-12-26T00:57:56.528Z,0.00
2018-12-26T00:58:56.519Z,0.00
2018-12-26T00:59:56.506Z,0.00
2018-12-26T01:00:56.496Z,0.00
2018-12-26T01:01:56.482Z,0.00
2018-12-26T01:02:56.473Z,0.00
2018-12-26T01:03:56.477Z,0.00
2018-12-26T01:04:56.449Z,0.00
2018-12-26T01:05:56.436Z,0.00
2018-12-26T01:06:56.426Z,0.00
2018-12-26T01:07:56.414Z,0.00
2018-12-26T01:08:56.403Z,0.00
2018-12-26T01:09:56.389Z,0.00
2018-12-26T01:10:56.396Z,0.00
2018-12-26T01:11:56.372Z,0.00
2018-12-26T01:12:56.357Z,0.00
2018-12-26T01:13:56.344Z,0.00
2018-12-26T01:14:56.335Z,0.00
2018-12-26T01:15:56.322Z,0.00
2018-12-26T01:16:56.318Z,0.00
2018-12-26T01:17:58.198Z,0.00
2018-12-26T01:18:56.292Z,0.00
2018-12-26T01:19:56.277Z,0.00
2018-12-26T01:20:56.265Z,0.00
2018-12-26T01:21:56.251Z,0.00
2018-12-26T01:22:56.246Z,0.00
2018-12-26T01:23:56.228Z,0.00
2018-12-26T01:24:56.218Z,0.00
2018-12-26T01:25:56.205Z,0.00
2018-12-26T01:26:56.196Z,0.00
2018-12-26T01:27:56.202Z,0.00
2018-12-26T01:28:56.173Z,0.00
2018-12-26T01:29:56.158Z,0.00
2018-12-26T01:30:56.149Z,0.00
2018-12-26T01:31:56.136Z,0.00
2018-12-26T01:32:56.125Z,0.00
2018-12-26T01:33:56.112Z,0.00
2018-12-26T01:34:56.103Z,0.00
2018-12-26T01:35:56.231Z,0.00
2018-12-26T01:36:56.081Z,0.00
2018-12-26T01:37:56.067Z,0.00
2018-12-26T01:38:56.059Z,0.00
2018-12-26T01:39:56.044Z,0.00
2018-12-26T01:40:56.034Z,0.00
2018-12-26T01:41:56.021Z,0.00
2018-12-26T01:42:56.012Z,0.00
2018-12-26T01:43:55.998Z,0.00
2018-12-26T01:44:55.990Z,0.00
2018-12-26T01:45:55.976Z,0.00
2018-12-26T01:46:55.967Z,0.00
2018-12-26T01:47:55.952Z,0.00
2018-12-26T01:48:55.941Z,0.00
2018-12-26T01:49:55.928Z,0.00
2018-12-26T01:50:55.919Z,0.00
2018-12-26T01:51:55.906Z,0.00
2018-12-26T01:52:55.895Z,0.00
2018-12-26T01:53:55.882Z,0.00
2018-12-26T01:54:55.872Z,0.00
2018-12-26T01:55:55.859Z,0.00
2018-12-26T01:56:55.851Z,0.00
2018-12-26T01:57:55.842Z,0.00
2018-12-26T01:58:55.826Z,0.00
2018-12-26T01:59:55.813Z,0.00
2018-12-26T02:00:55.803Z,0.00
2018-12-26T02:01:55.790Z,0.00
2018-12-26T02:02:55.781Z,0.00
2018-12-26T02:03:55.767Z,0.00
2018-12-26T02:04:55.758Z,0.00
2018-12-26T02:05:55.743Z,0.00
2018-12-26T02:06:55.734Z,0.00
2018-12-26T02:07:55.722Z,0.00
2018-12-26T02:08:55.711Z,0.00
2018-12-26T02:09:55.697Z,0.00
2018-12-26T02:10:55.688Z,0.00
2018-12-26T02:11:55.675Z,0.00
2018-12-26T02:12:55.665Z,0.00
2018-12-26T02:13:55.652Z,0.00
2018-12-26T02:14:55.644Z,0.00
2018-12-26T02:15:55.630Z,0.00
2018-12-26T02:16:55.619Z,0.00
2018-12-26T02:17:55.605Z,0.00
2018-12-26T02:18:55.597Z,0.00
2018-12-26T02:19:55.585Z,0.00
2018-12-26T02:20:55.575Z,0.00
2018-12-26T02:21:55.561Z,0.00
2018-12-26T02:22:55.552Z,0.00
2018-12-26T02:23:55.538Z,0.00
2018-12-26T02:24:55.529Z,0.00
2018-12-26T02:25:55.516Z,0.00
2018-12-26T02:26:55.507Z,0.00
2018-12-26T02:27:55.493Z,0.00
2018-12-26T02:28:55.484Z,0.00
2018-12-26T02:29:55.473Z,0.00
2018-12-26T02:30:55.467Z,0.00
2018-12-26T02:31:55.464Z,0.00
2018-12-26T02:32:55.439Z,0.00
2018-12-26T02:33:55.423Z,0.00
2018-12-26T02:34:55.415Z,0.00
2018-12-26T02:35:55.403Z,0.00
2018-12-26T02:36:55.510Z,0.00
2018-12-26T02:37:55.380Z,0.00
2018-12-26T02:38:55.368Z,0.00
2018-12-26T02:39:55.356Z,0.00
2018-12-26T02:40:55.345Z,0.00
2018-12-26T02:41:55.334Z,0.00
2018-12-26T02:42:55.322Z,0.00
2018-12-26T02:43:55.309Z,0.00
2018-12-26T02:44:55.299Z,0.00
2018-12-26T02:45:55.285Z,0.00
2018-12-26T02:46:55.279Z,0.00
2018-12-26T02:47:55.263Z,0.00
2018-12-26T02:48:55.253Z,0.00
2018-12-26T02:49:55.240Z,0.00
2018-12-26T02:50:55.232Z,0.00
2018-12-26T02:51:55.217Z,0.00
2018-12-26T02:52:55.206Z,0.00
2018-12-26T02:53:55.193Z,0.00
2018-12-26T02:54:55.193Z,0.00
2018-12-26T02:55:55.191Z,0.00
2018-12-26T02:56:55.160Z,0.00
2018-12-26T02:57:55.155Z,0.00
2018-12-26T02:58:55.141Z,0.00
2018-12-26T02:59:55.127Z,0.00
2018-12-26T03:00:55.119Z,0.00
2018-12-26T03:01:55.135Z,0.00
2018-12-26T03:02:55.090Z,0.00
2018-12-26T03:03:55.077Z,0.00
2018-12-26T03:04:55.070Z,0.00
2018-12-26T03:05:55.055Z,0.00
2018-12-26T03:06:55.043Z,0.00
2018-12-26T03:07:55.031Z,0.00
2018-12-26T03:08:55.020Z,0.00
2018-12-26T03:09:55.007Z,0.00
2018-12-26T03:10:55.000Z,0.00
2018-12-26T03:11:54.983Z,0.00
2018-12-26T03:12:54.974Z,0.00
2018-12-26T03:13:54.960Z,0.00
2018-12-26T03:14:54.951Z,0.00
2018-12-26T03:15:54.937Z,0.00
2018-12-26T03:16:54.928Z,0.00
2018-12-26T03:17:54.920Z,0.00
2018-12-26T03:18:54.906Z,0.00
2018-12-26T03:19:54.892Z,0.00
2018-12-26T03:20:54.882Z,0.00
2018-12-26T03:21:54.876Z,0.00
2018-12-26T03:22:54.858Z,0.00
2018-12-26T03:23:54.846Z,0.00
2018-12-26T03:24:54.839Z,0.00
2018-12-26T03:25:54.823Z,0.00
2018-12-26T03:26:56.362Z,0.00
2018-12-26T03:27:54.798Z,0.00
2018-12-26T03:28:54.788Z,0.00
2018-12-26T03:29:54.775Z,0.00
2018-12-26T03:30:54.766Z,0.00
2018-12-26T03:31:54.753Z,0.00
2018-12-26T03:32:54.745Z,0.00
2018-12-26T03:33:54.728Z,0.00
2018-12-26T03:34:54.720Z,0.00
2018-12-26T03:35:54.705Z,0.00
2018-12-26T03:36:54.696Z,0.00
2018-12-26T03:37:54.682Z,0.00
2018-12-26T03:38:54.672Z,0.00
2018-12-26T03:39:54.662Z,0.00
2018-12-26T03:40:54.654Z,0.00
2018-12-26T03:41:54.637Z,0.00
2018-12-26T03:42:54.627Z,0.00
2018-12-26T03:43:54.613Z,0.00
2018-12-26T03:44:54.604Z,0.00
2018-12-26T03:45:54.589Z,0.00
2018-12-26T03:46:54.586Z,0.00
2018-12-26T03:47:54.566Z,0.00
2018-12-26T03:48:54.556Z,0.00
2018-12-26T03:49:54.551Z,0.00
2018-12-26T03:50:54.535Z,0.00
2018-12-26T03:51:54.522Z,0.00
2018-12-26T03:52:54.509Z,0.00
2018-12-26T03:53:54.497Z,0.00
2018-12-26T03:54:54.490Z,0.00
2018-12-26T03:55:54.474Z,0.00
2018-12-26T03:56:54.460Z,0.00
2018-12-26T03:57:54.451Z,0.00
2018-12-26T03:58:54.451Z,0.00
2018-12-26T03:59:54.523Z,0.00
2018-12-26T04:00:54.413Z,0.00
2018-12-26T04:01:54.404Z,0.00
2018-12-26T04:02:54.389Z,0.00
2018-12-26T04:03:54.380Z,0.00
2018-12-26T04:04:54.365Z,0.00
2018-12-26T04:05:54.362Z,0.00
2018-12-26T04:06:54.342Z,0.00
2018-12-26T04:07:54.334Z,0.00
2018-12-26T04:08:54.317Z,0.00
2018-12-26T04:09:54.308Z,0.00
2018-12-26T04:10:54.294Z,0.00
2018-12-26T04:11:54.285Z,0.00
2018-12-26T04:12:54.270Z,0.00
2018-12-26T04:13:54.260Z,0.00
2018-12-26T04:14:54.249Z,0.00
2018-12-26T04:15:54.238Z,0.00
2018-12-26T04:16:54.222Z,0.00
2018-12-26T04:17:54.214Z,0.00
2018-12-26T04:18:54.199Z,0.00
2018-12-26T04:19:54.189Z,0.00
2018-12-26T04:20:54.174Z,0.00
2018-12-26T04:21:54.165Z,0.00
2018-12-26T04:22:54.151Z,0.00
2018-12-26T04:23:54.140Z,0.00
2018-12-26T04:24:54.129Z,0.00
2018-12-26T04:25:54.116Z,0.00
2018-12-26T04:26:54.103Z,0.00
2018-12-26T04:27:54.095Z,0.00
2018-12-26T04:28:54.080Z,0.00
2018-12-26T04:29:54.069Z,0.00
2018-12-26T04:30:54.054Z,0.00
2018-12-26T04:31:54.044Z,0.00
2018-12-26T04:32:54.029Z,0.00
2018-12-26T04:33:54.019Z,0.00
2018-12-26T04:34:54.011Z,0.00
2018-12-26T04:35:53.997Z,0.00
2018-12-26T04:36:53.981Z,0.00
2018-12-26T04:37:53.971Z,0.00
2018-12-26T04:38:53.957Z,0.00
2018-12-26T04:39:53.947Z,0.00
2018-12-26T04:40:53.934Z,0.00
2018-12-26T04:41:53.924Z,0.00
2018-12-26T04:42:53.909Z,0.00
2018-12-26T04:43:53.901Z,0.00
2018-12-26T04:44:53.889Z,0.00
2018-12-26T04:45:53.875Z,0.00
2018-12-26T04:46:53.861Z,0.00
2018-12-26T04:47:53.853Z,0.00
2018-12-26T04:48:53.837Z,0.00
2018-12-26T04:49:53.830Z,0.00
2018-12-26T04:50:53.813Z,0.00
2018-12-26T04:51:53.804Z,0.00
2018-12-26T04:52:53.791Z,0.00
2018-12-26T04:53:53.780Z,0.00
2018-12-26T04:54:53.774Z,0.00
2018-12-26T04:55:53.755Z,0.00
2018-12-26T04:56:53.741Z,0.00
2018-12-26T04:57:53.732Z,0.00
2018-12-26T04:58:53.725Z,0.00
2018-12-26T04:59:53.711Z,0.00
2018-12-26T05:00:53.693Z,0.00
2018-12-26T05:01:53.683Z,0.00
2018-12-26T05:02:53.675Z,0.00
2018-12-26T05:03:53.661Z,0.00
2018-12-26T05:04:53.645Z,0.00
2018-12-26T05:05:53.640Z,0.00
2018-12-26T05:06:53.633Z,0.00
2018-12-26T05:07:53.613Z,0.00
2018-12-26T05:08:53.598Z,0.00
2018-12-26T05:09:53.592Z,0.00
2018-12-26T05:10:53.578Z,0.00
2018-12-26T05:11:53.581Z,0.00
2018-12-26T05:12:53.552Z,0.00
2018-12-26T05:13:53.542Z,0.00
2018-12-26T05:14:53.535Z,0.00
2018-12-26T05:15:53.520Z,0.00
2018-12-26T05:16:53.507Z,0.00
2018-12-26T05:17:53.495Z,0.00
2018-12-26T05:18:53.526Z,0.00
2018-12-26T05:19:53.473Z,0.00
2018-12-26T05:20:53.457Z,0.00
2018-12-26T05:21:53.452Z,0.00
2018-12-26T05:22:53.434Z,0.00
2018-12-26T05:23:53.425Z,0.00
2018-12-26T05:24:53.411Z,0.00
2018-12-26T05:25:53.401Z,0.00
2018-12-26T05:26:53.462Z,0.00
2018-12-26T05:27:53.378Z,0.00
2018-12-26T05:28:53.364Z,0.00
2018-12-26T05:29:53.354Z,0.00
2018-12-26T05:30:53.340Z,0.00
2018-12-26T05:31:53.332Z,0.00
2018-12-26T05:32:53.317Z,0.00
2018-12-26T05:33:53.308Z,0.00
2018-12-26T05:34:53.294Z,0.00
2018-12-26T05:35:53.285Z,0.00
2018-12-26T05:36:53.270Z,0.00
2018-12-26T05:37:53.261Z,0.00
2018-12-26T05:38:53.284Z,0.00
2018-12-26T05:39:53.238Z,0.00
2018-12-26T05:40:53.223Z,0.00
2018-12-26T05:41:53.217Z,0.00
2018-12-26T05:42:53.200Z,0.00
2018-12-26T05:43:53.193Z,0.00
2018-12-26T05:44:53.176Z,0.00
2018-12-26T05:45:53.167Z,0.00
2018-12-26T05:46:53.153Z,0.00
2018-12-26T05:47:53.143Z,0.00
2018-12-26T05:48:53.129Z,0.00
2018-12-26T05:49:53.119Z,0.00
2018-12-26T05:50:53.106Z,0.00
2018-12-26T05:51:53.096Z,0.00
2018-12-26T05:52:53.081Z,0.00
2018-12-26T05:53:53.071Z,0.00
2018-12-26T05:54:53.062Z,0.00
2018-12-26T05:55:53.049Z,0.00
2018-12-26T05:56:53.033Z,0.00
2018-12-26T05:57:53.024Z,0.00
2018-12-26T05:58:53.010Z,0.00
2018-12-26T05:59:53.000Z,0.00
2018-12-26T06:00:52.985Z,0.00
2018-12-26T06:01:52.975Z,0.00
2018-12-26T06:02:52.961Z,0.00
2018-12-26T06:03:52.952Z,0.00
2018-12-26T06:04:52.936Z,0.00
2018-12-26T06:05:52.926Z,0.00
2018-12-26T06:06:52.913Z,0.00
2018-12-26T06:07:52.903Z,0.00
2018-12-26T06:08:52.887Z,0.00
2018-12-26T06:09:52.879Z,0.00
2018-12-26T06:10:52.864Z,0.00
2018-12-26T06:11:52.854Z,0.00
2018-12-26T06:12:52.839Z,0.00
2018-12-26T06:13:52.829Z,0.00
2018-12-26T06:14:52.819Z,0.00
2018-12-26T06:15:52.809Z,0.00
2018-12-26T06:16:52.791Z,0.00
2018-12-26T06:17:52.832Z,0.00
2018-12-26T06:18:52.767Z,0.00
2018-12-26T06:19:52.756Z,0.00
2018-12-26T06:20:52.741Z,0.00
2018-12-26T06:21:52.731Z,0.00
2018-12-26T06:22:52.722Z,0.00
2018-12-26T06:23:52.727Z,0.00
2018-12-26T06:24:52.692Z,0.00
2018-12-26T06:25:52.684Z,0.00
2018-12-26T06:26:52.668Z,0.00
2018-12-26T06:27:52.666Z,0.00
2018-12-26T06:28:52.646Z,0.00
2018-12-26T06:29:52.634Z,0.00
2018-12-26T06:30:52.620Z,0.00
2018-12-26T06:31:52.611Z,0.00
2018-12-26T06:32:52.595Z,0.00
2018-12-26T06:33:52.586Z,0.00
2018-12-26T06:34:52.572Z,0.00
2018-12-26T06:35:52.563Z,0.00
2018-12-26T06:36:52.548Z,0.00
2018-12-26T06:37:52.540Z,0.00
2018-12-26T06:38:52.524Z,0.00
2018-12-26T06:39:52.515Z,0.00
2018-12-26T06:40:52.503Z,0.00
2018-12-26T06:41:52.490Z,0.00
2018-12-26T06:42:52.478Z,0.00
2018-12-26T06:43:52.466Z,0.00
2018-12-26T06:44:52.452Z,0.00
2018-12-26T06:45:52.441Z,0.00
2018-12-26T06:46:52.427Z,0.00
2018-12-26T06:47:52.426Z,0.00
2018-12-26T06:48:52.402Z,0.00
2018-12-26T06:49:52.495Z,0.00
2018-12-26T06:50:52.379Z,0.00
2018-12-26T06:51:52.368Z,0.00
2018-12-26T06:52:52.354Z,0.00
2018-12-26T06:53:52.344Z,0.00
2018-12-26T06:54:52.330Z,0.00
2018-12-26T06:55:52.328Z,0.00
2018-12-26T06:56:52.305Z,0.00
2018-12-26T06:57:59.839Z,0.00
2018-12-26T06:58:52.282Z,0.00
2018-12-26T06:59:52.272Z,0.00
2018-12-26T07:00:52.257Z,0.00
2018-12-26T07:01:52.248Z,0.00
2018-12-26T07:02:52.233Z,0.00
2018-12-26T07:03:52.224Z,0.00
2018-12-26T07:04:52.209Z,0.00
2018-12-26T07:05:52.199Z,0.00
2018-12-26T07:06:52.185Z,0.00
2018-12-26T07:07:52.176Z,0.00
2018-12-26T07:08:52.161Z,0.00
2018-12-26T07:09:52.151Z,0.00
2018-12-26T07:10:52.137Z,0.00
2018-12-26T07:11:52.129Z,0.00
2018-12-26T07:12:52.118Z,4.00
2018-12-26T07:13:52.103Z,4.00
2018-12-26T07:14:52.089Z,0.00
2018-12-26T07:15:52.176Z,4.00
2018-12-26T07:16:52.065Z,4.00
2018-12-26T07:17:52.055Z,4.00
2018-12-26T07:18:52.041Z,4.00
2018-12-26T07:19:52.032Z,4.00
2018-12-26T07:20:52.017Z,4.00
2018-12-26T07:21:52.008Z,4.00
2018-12-26T07:22:51.997Z,4.00
2018-12-26T07:23:51.985Z,4.00
2018-12-26T07:24:51.969Z,8.00
2018-12-26T07:25:51.960Z,8.00
2018-12-26T07:26:51.945Z,8.00
2018-12-26T07:27:51.936Z,12.00
2018-12-26T07:28:51.921Z,12.00
2018-12-26T07:29:51.911Z,12.00
2018-12-26T07:30:51.897Z,16.00
2018-12-26T07:31:51.887Z,16.00
2018-12-26T07:32:51.874Z,20.00
2018-12-26T07:33:51.864Z,20.00
2018-12-26T07:34:51.848Z,20.00
2018-12-26T07:35:51.839Z,24.00
2018-12-26T07:36:51.823Z,24.00
2018-12-26T07:37:51.816Z,24.00
2018-12-26T07:38:51.806Z,28.00
2018-12-26T07:39:51.798Z,32.00
2018-12-26T07:40:51.777Z,32.00
2018-12-26T07:41:51.765Z,36.00
2018-12-26T07:42:51.751Z,36.00
2018-12-26T07:43:51.747Z,36.00
2018-12-26T07:44:51.726Z,44.00
2018-12-26T07:45:51.716Z,48.00
2018-12-26T07:46:51.702Z,44.00
2018-12-26T07:47:51.694Z,60.00
2018-12-26T07:48:51.677Z,60.00
2018-12-26T07:49:51.667Z,64.00
2018-12-26T07:50:51.656Z,72.00
2018-12-26T07:51:51.646Z,68.00
2018-12-26T07:52:51.630Z,72.00
2018-12-26T07:53:51.619Z,68.00
2018-12-26T07:54:51.605Z,72.00
2018-12-26T07:55:51.595Z,68.00
2018-12-26T07:56:51.581Z,68.00
2018-12-26T07:57:51.570Z,72.00
2018-12-26T07:58:51.558Z,72.00
2018-12-26T07:59:51.546Z,68.00
2018-12-26T08:00:51.531Z,80.00
2018-12-26T08:01:51.521Z,84.00
2018-12-26T08:02:51.507Z,80.00
2018-12-26T08:03:51.497Z,80.00
2018-12-26T08:04:51.483Z,84.00
2018-12-26T08:05:51.473Z,88.00
2018-12-26T08:06:51.459Z,96.00
2018-12-26T08:07:51.451Z,108.00
2018-12-26T08:08:51.434Z,104.00
2018-12-26T08:09:51.425Z,108.00
2018-12-26T08:10:51.412Z,108.00
2018-12-26T08:11:51.401Z,104.00
2018-12-26T08:12:51.387Z,112.00
2018-12-26T08:13:51.377Z,120.00
2018-12-26T08:14:51.364Z,120.00
2018-12-26T08:15:51.349Z,116.00
2018-12-26T08:16:53.304Z,120.00
2018-12-26T08:17:51.324Z,124.00
2018-12-26T08:18:51.315Z,104.00
2018-12-26T08:19:51.301Z,112.00
2018-12-26T08:20:51.290Z,112.00
2018-12-26T08:21:51.276Z,112.00
2018-12-26T08:22:51.266Z,116.00
2018-12-26T08:23:51.252Z,112.00
2018-12-26T08:24:51.242Z,128.00
2018-12-26T08:25:51.228Z,124.00
2018-12-26T08:26:51.218Z,140.00
2018-12-26T08:27:51.204Z,148.00
2018-12-26T08:28:51.193Z,144.00
2018-12-26T08:29:51.178Z,136.00
2018-12-26T08:30:51.169Z,152.00
2018-12-26T08:31:51.154Z,156.00
2018-12-26T08:32:51.144Z,164.00
2018-12-26T08:33:51.131Z,160.00
2018-12-26T08:34:51.121Z,164.00
2018-12-26T08:35:51.107Z,148.00
2018-12-26T08:36:51.095Z,156.00
2018-12-26T08:37:51.088Z,144.00
2018-12-26T08:38:51.072Z,148.00
2018-12-26T08:39:51.057Z,136.00
2018-12-26T08:40:51.047Z,140.00
2018-12-26T08:41:51.033Z,136.00
2018-12-26T08:42:51.023Z,132.00
2018-12-26T08:43:51.009Z,140.00
2018-12-26T08:44:50.998Z,140.00
2018-12-26T08:45:50.984Z,136.00
2018-12-26T08:46:50.976Z,140.00
2018-12-26T08:47:50.961Z,144.00
2018-12-26T08:48:50.951Z,164.00
2018-12-26T08:49:50.936Z,168.00
2018-12-26T08:50:50.927Z,164.00
2018-12-26T08:51:50.915Z,156.00
2018-12-26T08:52:50.903Z,168.00
2018-12-26T08:53:50.892Z,168.00
2018-12-26T08:54:50.888Z,160.00
2018-12-26T08:55:50.865Z,180.00
2018-12-26T08:56:50.855Z,168.00
2018-12-26T08:57:50.840Z,172.00
2018-12-26T08:58:50.833Z,172.00
2018-12-26T08:59:50.832Z,172.00
2018-12-26T09:00:50.807Z,172.00
2018-12-26T09:01:50.792Z,176.00
2018-12-26T09:02:50.783Z,180.00
2018-12-26T09:03:50.769Z,180.00
2018-12-26T09:04:50.759Z,188.00
2018-12-26T09:05:50.745Z,196.00
2018-12-26T09:06:50.735Z,212.00
2018-12-26T09:07:50.721Z,220.00
2018-12-26T09:08:50.711Z,204.00
2018-12-26T09:09:50.697Z,200.00
2018-12-26T09:10:50.688Z,184.00
2018-12-26T09:11:50.675Z,192.00
2018-12-26T09:12:50.663Z,196.00
2018-12-26T09:13:50.649Z,180.00
2018-12-26T09:14:50.640Z,184.00
2018-12-26T09:15:50.627Z,192.00
2018-12-26T09:16:50.618Z,188.00
2018-12-26T09:17:50.604Z,176.00
2018-12-26T09:18:50.594Z,172.00
2018-12-26T09:19:50.581Z,172.00
2018-12-26T09:20:50.569Z,176.00
2018-12-26T09:21:50.556Z,180.00
2018-12-26T09:22:50.546Z,180.00
2018-12-26T09:23:50.533Z,188.00
2018-12-26T09:24:50.532Z,184.00
2018-12-26T09:25:50.509Z,192.00
2018-12-26T09:26:50.499Z,196.00
2018-12-26T09:27:50.487Z,216.00
2018-12-26T09:28:50.476Z,204.00
2018-12-26T09:29:50.462Z,200.00
2018-12-26T09:30:50.453Z,208.00
2018-12-26T09:31:50.439Z,220.00
2018-12-26T09:32:50.429Z,224.00
2018-12-26T09:33:50.665Z,224.00
2018-12-26T09:34:50.406Z,236.00
2018-12-26T09:35:50.393Z,236.00
2018-12-26T09:36:50.386Z,244.00
2018-12-26T09:37:50.369Z,256.00
2018-12-26T09:38:50.359Z,248.00
2018-12-26T09:39:50.346Z,272.00
2018-12-26T09:40:50.335Z,264.00
2018-12-26T09:41:50.322Z,252.00
2018-12-26T09:42:50.313Z,248.00
2018-12-26T09:43:50.299Z,256.00
2018-12-26T09:44:54.437Z,260.00
2018-12-26T09:45:50.276Z,252.00
2018-12-26T09:46:50.267Z,252.00
2018-12-26T09:47:50.254Z,264.00
2018-12-26T09:48:50.243Z,260.00
2018-12-26T09:49:50.231Z,256.00
2018-12-26T09:50:50.221Z,260.00
2018-12-26T09:51:50.207Z,256.00
2018-12-26T09:52:50.197Z,272.00
2018-12-26T09:53:50.184Z,276.00
2018-12-26T09:54:50.175Z,284.00
2018-12-26T09:55:50.161Z,300.00
2018-12-26T09:56:50.152Z,284.00
2018-12-26T09:57:50.138Z,304.00
2018-12-26T09:58:52.660Z,296.00
2018-12-26T09:59:50.117Z,284.00
2018-12-26T10:00:50.105Z,292.00
2018-12-26T10:01:50.092Z,292.00
2018-12-26T10:02:50.083Z,276.00
2018-12-26T10:03:50.071Z,284.00
2018-12-26T10:04:50.060Z,300.00
2018-12-26T10:05:50.047Z,300.00
2018-12-26T10:06:50.038Z,304.00
2018-12-26T10:07:50.026Z,304.00
2018-12-26T10:08:50.015Z,324.00
2018-12-26T10:09:50.002Z,308.00
2018-12-26T10:10:49.993Z,308.00
2018-12-26T10:11:49.980Z,308.00
2018-12-26T10:12:49.974Z,316.00
2018-12-26T10:13:50.892Z,324.00
2018-12-26T10:14:49.949Z,300.00
2018-12-26T10:15:49.935Z,284.00
2018-12-26T10:16:49.925Z,288.00
2018-12-26T10:17:49.914Z,292.00
2018-12-26T10:18:49.917Z,320.00
2018-12-26T10:19:50.283Z,320.00
2018-12-26T10:20:49.882Z,312.00
2018-12-26T10:21:49.867Z,340.00
2018-12-26T10:22:49.859Z,316.00
2018-12-26T10:23:49.846Z,304.00
2018-12-26T10:24:49.836Z,308.00
2018-12-26T10:25:49.824Z,296.00
2018-12-26T10:26:49.817Z,316.00
2018-12-26T10:27:49.801Z,308.00
2018-12-26T10:28:49.790Z,312.00
2018-12-26T10:29:49.777Z,296.00
2018-12-26T10:30:49.768Z,296.00
2018-12-26T10:31:49.756Z,284.00
2018-12-26T10:32:50.047Z,272.00
2018-12-26T10:33:49.733Z,276.00
2018-12-26T10:34:49.725Z,284.00
2018-12-26T10:35:49.711Z,292.00
2018-12-26T10:36:49.701Z,296.00
2018-12-26T10:37:49.688Z,288.00
2018-12-26T10:38:49.680Z,312.00
2018-12-26T10:39:49.666Z,300.00
2018-12-26T10:40:49.656Z,304.00
2018-12-26T10:41:49.643Z,316.00
2018-12-26T10:42:49.634Z,320.00
2018-12-26T10:43:49.621Z,328.00
2018-12-26T10:44:49.611Z,328.00
2018-12-26T10:45:49.598Z,328.00
2018-12-26T10:46:49.589Z,352.00
2018-12-26T10:47:49.580Z,348.00
2018-12-26T10:48:49.566Z,332.00
2018-12-26T10:49:49.552Z,308.00
2018-12-26T10:50:49.544Z,332.00
2018-12-26T10:51:49.532Z,324.00
2018-12-26T10:52:49.520Z,332.00
2018-12-26T10:53:49.508Z,328.00
2018-12-26T10:54:49.500Z,340.00
2018-12-26T10:55:49.485Z,320.00
2018-12-26T10:56:49.475Z,316.00
2018-12-26T10:57:49.463Z,320.00
2018-12-26T10:58:49.454Z,312.00
2018-12-26T10:59:49.441Z,324.00
2018-12-26T11:00:49.434Z,320.00
2018-12-26T11:01:49.416Z,316.00
2018-12-26T11:02:49.409Z,332.00
2018-12-26T11:03:49.395Z,332.00
2018-12-26T11:04:49.385Z,340.00
2018-12-26T11:05:49.371Z,328.00
2018-12-26T11:06:49.361Z,336.00
2018-12-26T11:07:49.348Z,324.00
2018-12-26T11:08:49.339Z,316.00
2018-12-26T11:09:49.329Z,312.00
2018-12-26T11:10:49.316Z,288.00
2018-12-26T11:11:49.303Z,292.00
2018-12-26T11:12:49.294Z,300.00
2018-12-26T11:13:49.281Z,320.00
2018-12-26T11:14:49.270Z,332.00
2018-12-26T11:15:49.257Z,336.00
2018-12-26T11:16:49.248Z,336.00
2018-12-26T11:17:49.237Z,320.00
2018-12-26T11:18:49.225Z,320.00
2018-12-26T11:19:49.211Z,324.00
2018-12-26T11:20:49.201Z,320.00
2018-12-26T11:21:49.189Z,324.00
2018-12-26T11:22:49.180Z,348.00
2018-12-26T11:23:49.165Z,368.00
2018-12-26T11:24:49.155Z,368.00
2018-12-26T11:25:49.142Z,372.00
2018-12-26T11:26:49.135Z,408.00
2018-12-26T11:27:49.120Z,404.00
2018-12-26T11:28:49.208Z,440.00
2018-12-26T11:29:49.101Z,440.00
2018-12-26T11:30:49.087Z,428.00
2018-12-26T11:31:49.074Z,428.00
2018-12-26T11:32:49.065Z,440.00
2018-12-26T11:33:49.063Z,436.00
2018-12-26T11:34:49.042Z,436.00
2018-12-26T11:35:49.029Z,404.00
2018-12-26T11:36:49.018Z,408.00
2018-12-26T11:37:49.005Z,388.00
2018-12-26T11:38:49.007Z,420.00
2018-12-26T11:39:48.983Z,448.00
2018-12-26T11:40:48.973Z,444.00
2018-12-26T11:41:48.959Z,448.00
2018-12-26T11:42:48.951Z,496.00
2018-12-26T11:43:48.937Z,496.00
2018-12-26T11:44:48.927Z,492.00
2018-12-26T11:45:48.914Z,488.00
2018-12-26T11:46:48.904Z,500.00
2018-12-26T11:47:48.891Z,500.00
2018-12-26T11:48:48.881Z,512.00
2018-12-26T11:49:48.868Z,476.00
2018-12-26T11:50:48.859Z,476.00
2018-12-26T11:51:48.846Z,500.00
2018-12-26T11:52:48.836Z,508.00
2018-12-26T11:53:48.823Z,512.00
2018-12-26T11:54:48.813Z,544.00
2018-12-26T11:55:48.801Z,544.00
2018-12-26T11:56:48.789Z,560.00
2018-12-26T11:57:48.776Z,568.00
2018-12-26T11:58:48.767Z,568.00
2018-12-26T11:59:48.756Z,540.00
2018-12-26T12:00:48.744Z,504.00
2018-12-26T12:01:48.733Z,532.00
2018-12-26T12:02:48.722Z,512.00
2018-12-26T12:03:48.708Z,524.00
2018-12-26T12:04:48.698Z,520.00
2018-12-26T12:05:48.685Z,556.00
2018-12-26T12:06:48.678Z,516.00
2018-12-26T12:07:48.663Z,536.00
2018-12-26T12:08:48.653Z,548.00
2018-12-26T12:09:48.639Z,488.00
2018-12-26T12:10:50.167Z,488.00
2018-12-26T12:11:48.618Z,488.00
2018-12-26T12:12:48.608Z,488.00
2018-12-26T12:13:48.595Z,484.00
2018-12-26T12:14:48.587Z,440.00
2018-12-26T12:15:48.572Z,452.00
2018-12-26T12:16:48.563Z,428.00
2018-12-26T12:17:48.550Z,428.00
2018-12-26T12:18:48.541Z,440.00
2018-12-26T12:19:48.528Z,400.00
2018-12-26T12:20:48.520Z,388.00
2018-12-26T12:21:48.505Z,404.00
2018-12-26T12:22:48.496Z,396.00
2018-12-26T12:23:48.483Z,388.00
2018-12-26T12:24:48.474Z,388.00
2018-12-26T12:25:48.463Z,364.00
2018-12-26T12:26:48.451Z,352.00
2018-12-26T12:27:48.441Z,376.00
2018-12-26T12:28:48.428Z,348.00
2018-12-26T12:29:48.419Z,352.00
2018-12-26T12:30:48.406Z,356.00
2018-12-26T12:31:48.397Z,376.00
2018-12-26T12:32:48.384Z,344.00
2018-12-26T12:33:48.375Z,360.00
2018-12-26T12:34:48.361Z,356.00
2018-12-26T12:35:48.354Z,336.00
2018-12-26T12:36:48.339Z,332.00
2018-12-26T12:37:48.330Z,360.00
2018-12-26T12:38:48.320Z,348.00
2018-12-26T12:39:48.311Z,332.00
2018-12-26T12:40:48.295Z,348.00
2018-12-26T12:41:48.286Z,360.00
2018-12-26T12:42:48.274Z,368.00
2018-12-26T12:43:48.265Z,356.00
2018-12-26T12:44:48.251Z,352.00
2018-12-26T12:45:48.250Z,352.00
2018-12-26T12:46:48.233Z,332.00
2018-12-26T12:47:48.222Z,324.00
2018-12-26T12:48:48.207Z,328.00
2018-12-26T12:49:48.202Z,332.00
2018-12-26T12:50:48.186Z,332.00
2018-12-26T12:51:48.178Z,312.00
2018-12-26T12:52:48.163Z,304.00
2018-12-26T12:53:48.157Z,300.00
2018-12-26T12:54:48.155Z,288.00
2018-12-26T12:55:48.133Z,296.00
2018-12-26T12:56:48.120Z,280.00
2018-12-26T12:57:48.113Z,288.00